Time;durP1;ratioP1;P1;durP2;ratioP2;P2;SDS_P1;SDS_P2;PMS_P1;PMS_P2;Temp;Humidity;BMP_temperature;BMP_pressure;BME280_temperature;BME280_humidity;BME280_pressure;Samples;Min_cycle;Max_cycle;Signal;HPM_P1;HPM_P2
2024/03/09 00:01:43;;;;;;;;;4.67;2.00;;;;;;;;5080883;27;45423;-60
2024/03/09 00:04:08;;;;;;;;;1.00;1.00;;;;;;;;5081786;27;45592;-60
2024/03/09 00:06:35;;;;;;;;;1.00;1.00;;;;;;;;5082933;27;45421;-59
2024/03/09 00:09:01;;;;;;;;;1.00;1.00;;;;;;;;5082281;27;45411;-60
2024/03/09 00:11:26;;;;;;;;;2.00;1.00;;;;;;;;5085615;27;45577;-60
2024/03/09 00:13:51;;;;;;;;;1.00;1.00;;;;;;;;5080355;27;45464;-60
2024/03/09 00:16:16;;;;;;;;;3.00;2.00;;;;;;;;5076548;27;45403;-59
2024/03/09 00:18:42;;;;;;;;;0.00;0.00;;;;;;;;5082615;27;45141;-60
2024/03/09 00:21:08;;;;;;;;;2.00;2.00;;;;;;;;5080743;27;45191;-60
2024/03/09 00:23:34;;;;;;;;;1.00;1.00;;;;;;;;5077050;27;45317;-60
2024/03/09 00:25:59;;;;;;;;;2.00;2.00;;;;;;;;5082781;27;46308;-60
2024/03/09 00:28:25;;;;;;;;;3.00;1.00;;;;;;;;5077947;27;45448;-60
2024/03/09 00:30:50;;;;;;;;;2.00;2.00;;;;;;;;5076354;27;45300;-60
2024/03/09 00:33:15;;;;;;;;;1.00;1.00;;;;;;;;5091019;27;45596;-60
2024/03/09 00:35:41;;;;;;;;;3.00;1.00;;;;;;;;5080940;27;46261;-60
2024/03/09 00:38:06;;;;;;;;;2.67;1.00;;;;;;;;5092823;27;45449;-60
2024/03/09 00:40:31;;;;;;;;;2.00;1.00;;;;;;;;5083453;27;45576;-59
2024/03/09 00:43:04;;;;;;;;;1.00;1.00;;;;;;;;5088017;27;45497;-60
2024/03/09 00:45:30;;;;;;;;;2.00;2.00;;;;;;;;5078730;27;47003;-60
2024/03/09 00:47:55;;;;;;;;;1.67;1.67;;;;;;;;5078862;27;45362;-60
2024/03/09 00:50:26;;;;;;;;;2.00;2.00;;;;;;;;5076718;27;45244;-60
2024/03/09 00:52:52;;;;;;;;;2.67;2.67;;;;;;;;5077345;27;45615;-60
2024/03/09 00:55:17;;;;;;;;;2.33;2.33;;;;;;;;5081733;27;47246;-60
2024/03/09 00:57:44;;;;;;;;;3.33;2.67;;;;;;;;5094971;27;45352;-61
2024/03/09 01:00:16;;;;;;;;;4.00;2.00;;;;;;;;5081362;27;45409;-59
2024/03/09 01:02:43;;;;;;;;;5.00;3.33;;;;;;;;5079170;27;45360;-60
2024/03/09 01:05:08;;;;;;;;;2.67;2.67;;;;;;;;5092569;27;46175;-60
2024/03/09 01:07:34;;;;;;;;;5.00;3.00;;;;;;;;5083312;27;45333;-60
2024/03/09 01:10:00;;;;;;;;;2.33;2.33;;;;;;;;5080948;27;45353;-60
2024/03/09 01:12:26;;;;;;;;;3.67;3.00;;;;;;;;5086145;27;45468;-60
2024/03/09 01:14:51;;;;;;;;;3.33;3.33;;;;;;;;5090561;27;46306;-60
2024/03/09 01:17:20;;;;;;;;;4.00;4.00;;;;;;;;5080827;27;45386;-60
2024/03/09 01:19:46;;;;;;;;;2.00;2.00;;;;;;;;5077280;27;45235;-60
2024/03/09 01:22:12;;;;;;;;;3.67;2.00;;;;;;;;5074691;27;45543;-60
2024/03/09 01:24:39;;;;;;;;;3.00;3.00;;;;;;;;5073288;27;46192;-60
2024/03/09 01:27:04;;;;;;;;;3.00;3.00;;;;;;;;5074417;27;45338;-60
2024/03/09 01:29:29;;;;;;;;;3.00;3.00;;;;;;;;5072700;27;45273;-60
2024/03/09 01:31:55;;;;;;;;;3.00;3.00;;;;;;;;5081643;27;45657;-60
2024/03/09 01:34:20;;;;;;;;;3.00;3.00;;;;;;;;5078526;27;46043;-60
2024/03/09 01:36:45;;;;;;;;;2.00;2.00;;;;;;;;5089761;27;45475;-60
2024/03/09 01:39:10;;;;;;;;;3.00;3.00;;;;;;;;5080605;27;45469;-60
2024/03/09 01:41:36;;;;;;;;;4.00;2.00;;;;;;;;5091607;27;45442;-60
2024/03/09 01:44:01;;;;;;;;;3.33;3.00;;;;;;;;5084272;27;45342;-60
2024/03/09 01:46:26;;;;;;;;;3.67;2.67;;;;;;;;5095827;27;45322;-60
2024/03/09 01:48:51;;;;;;;;;4.00;3.67;;;;;;;;5088547;27;45313;-60
2024/03/09 01:51:17;;;;;;;;;2.00;2.00;;;;;;;;5078795;27;45424;-60
2024/03/09 01:53:44;;;;;;;;;5.00;2.00;;;;;;;;5087987;27;47213;-60
2024/03/09 01:56:12;;;;;;;;;4.00;2.67;;;;;;;;5091995;27;45415;-59
2024/03/09 01:58:41;;;;;;;;;4.00;3.00;;;;;;;;5089876;27;45445;-64
2024/03/09 02:01:19;;;;;;;;;4.00;3.00;;;;;;;;5081281;27;45480;-60
2024/03/09 02:03:44;;;;;;;;;2.00;2.00;;;;;;;;5083342;27;45445;-60
2024/03/09 02:06:11;;;;;;;;;1.00;1.00;;;;;;;;5084845;27;45314;-60
2024/03/09 02:08:38;;;;;;;;;2.00;2.00;;;;;;;;5089402;27;45513;-60
2024/03/09 02:11:03;;;;;;;;;3.00;2.00;;;;;;;;5086320;27;45503;-59
2024/03/09 02:13:29;;;;;;;;;4.00;3.00;;;;;;;;5089850;27;46041;-60
2024/03/09 02:15:54;;;;;;;;;4.67;2.67;;;;;;;;5080077;27;45265;-60
2024/03/09 02:18:20;;;;;;;;;1.00;1.00;;;;;;;;5083632;27;45271;-60
2024/03/09 02:20:50;;;;;;;;;3.33;3.00;;;;;;;;5091379;27;45353;-60
2024/03/09 02:23:18;;;;;;;;;2.00;2.00;;;;;;;;5075933;27;45300;-59
2024/03/09 02:25:43;;;;;;;;;4.00;3.00;;;;;;;;5078558;27;45244;-60
2024/03/09 02:28:09;;;;;;;;;3.00;2.00;;;;;;;;5090082;27;45458;-61
2024/03/09 02:30:35;;;;;;;;;2.33;1.67;;;;;;;;5072750;27;45431;-60
2024/03/09 02:33:00;;;;;;;;;2.67;2.00;;;;;;;;5081658;27;46123;-59
2024/03/09 02:35:25;;;;;;;;;3.00;2.33;;;;;;;;5083226;27;45442;-60
2024/03/09 02:37:50;;;;;;;;;4.00;2.00;;;;;;;;5090769;27;45303;-60
2024/03/09 02:40:16;;;;;;;;;3.00;3.00;;;;;;;;5087034;27;45533;-60
2024/03/09 02:43:04;;;;;;;;;5.00;2.00;;;;;;;;5086785;27;46061;-60
2024/03/09 02:45:27;;;;;;;;;2.67;2.67;;;;;;;;5092485;27;45349;-60
2024/03/09 02:47:53;;;;;;;;;5.00;3.00;;;;;;;;5090188;27;45235;-60
2024/03/09 02:50:18;;;;;;;;;4.67;2.00;;;;;;;;5085482;27;45500;-59
2024/03/09 02:52:43;;;;;;;;;4.00;3.00;;;;;;;;5081235;27;45351;-60
2024/03/09 02:55:08;;;;;;;;;2.00;2.00;;;;;;;;5080223;27;45400;-60
2024/03/09 02:57:33;;;;;;;;;2.00;2.00;;;;;;;;5081480;27;45232;-60
2024/03/09 03:00:00;;;;;;;;;6.00;4.00;;;;;;;;5090557;27;45432;-59
2024/03/09 03:05:09;;;;;;;;;5.00;3.50;;;;;;;;5081965;27;45394;-59
2024/03/09 03:07:34;;;;;;;;;3.00;3.00;;;;;;;;5091732;27;45295;-60
2024/03/09 03:10:00;;;;;;;;;6.00;4.00;;;;;;;;5091762;27;45472;-60
2024/03/09 03:12:26;;;;;;;;;3.67;3.67;;;;;;;;5079321;27;46930;-59
2024/03/09 03:14:51;;;;;;;;;3.67;3.00;;;;;;;;5084008;27;45362;-59
2024/03/09 03:17:16;;;;;;;;;7.67;4.33;;;;;;;;5088773;27;45725;-60
2024/03/09 03:19:41;;;;;;;;;5.00;4.67;;;;;;;;5087472;27;45422;-60
2024/03/09 03:22:07;;;;;;;;;4.33;4.00;;;;;;;;5079905;27;45537;-59
2024/03/09 03:24:32;;;;;;;;;8.33;5.00;;;;;;;;5084768;27;45887;-59
2024/03/09 03:26:57;;;;;;;;;5.00;4.00;;;;;;;;5088650;27;45235;-61
2024/03/09 03:29:24;;;;;;;;;5.00;5.00;;;;;;;;5080205;27;45495;-60
2024/03/09 03:31:49;;;;;;;;;3.67;3.00;;;;;;;;5096507;27;47175;-60
2024/03/09 03:34:15;;;;;;;;;6.00;3.00;;;;;;;;5083427;27;45340;-60
2024/03/09 03:36:42;;;;;;;;;4.33;3.00;;;;;;;;5090741;27;45600;-60
2024/03/09 03:39:12;;;;;;;;;3.00;3.00;;;;;;;;5086098;27;45403;-60
2024/03/09 03:41:37;;;;;;;;;3.33;3.33;;;;;;;;5087572;27;46102;-60
2024/03/09 03:44:03;;;;;;;;;5.00;3.33;;;;;;;;5091259;27;45426;-60
2024/03/09 03:46:29;;;;;;;;;4.00;4.00;;;;;;;;5093546;27;45387;-60
2024/03/09 03:48:55;;;;;;;;;2.67;2.67;;;;;;;;5093605;27;45350;-60
2024/03/09 03:51:20;;;;;;;;;3.33;3.33;;;;;;;;5093236;27;46432;-60
2024/03/09 03:53:45;;;;;;;;;6.00;4.00;;;;;;;;5085506;27;45460;-60
2024/03/09 03:56:11;;;;;;;;;7.00;5.00;;;;;;;;5089368;27;45272;-60
2024/03/09 03:58:37;;;;;;;;;3.00;3.00;;;;;;;;5089316;27;45356;-60
2024/03/09 04:01:03;;;;;;;;;3.67;2.33;;;;;;;;5079318;27;45397;-60
2024/03/09 04:03:31;;;;;;;;;3.67;3.67;;;;;;;;5086696;27;45291;-60
2024/03/09 04:05:57;;;;;;;;;2.00;2.00;;;;;;;;5091492;27;45452;-59
2024/03/09 04:08:22;;;;;;;;;2.33;2.33;;;;;;;;5090550;27;45672;-60
2024/03/09 04:10:48;;;;;;;;;4.00;2.67;;;;;;;;5085561;27;46031;-60
2024/03/09 04:13:14;;;;;;;;;2.00;2.00;;;;;;;;5089051;27;45519;-59
2024/03/09 04:15:40;;;;;;;;;1.00;1.00;;;;;;;;5081264;27;45436;-60
2024/03/09 04:18:05;;;;;;;;;2.00;2.00;;;;;;;;5089058;27;45363;-60
2024/03/09 04:20:34;;;;;;;;;2.00;2.00;;;;;;;;5079144;27;46194;-60
2024/03/09 04:23:02;;;;;;;;;1.00;1.00;;;;;;;;5076463;27;45598;-61
2024/03/09 04:25:28;;;;;;;;;2.33;2.00;;;;;;;;5080676;27;45381;-60
2024/03/09 04:27:55;;;;;;;;;3.00;3.00;;;;;;;;5092852;27;45352;-60
2024/03/09 04:30:22;;;;;;;;;4.00;2.33;;;;;;;;5083029;27;46094;-60
2024/03/09 04:32:47;;;;;;;;;2.33;2.00;;;;;;;;5094169;27;45435;-60
2024/03/09 04:35:12;;;;;;;;;1.33;1.33;;;;;;;;5083358;27;45302;-60
2024/03/09 04:37:37;;;;;;;;;3.00;2.00;;;;;;;;5080670;27;45311;-60
2024/03/09 04:40:14;;;;;;;;;1.33;1.33;;;;;;;;5087304;27;45481;-60
2024/03/09 04:42:40;;;;;;;;;4.67;2.00;;;;;;;;5087409;27;45224;-60
2024/03/09 04:45:05;;;;;;;;;2.00;2.00;;;;;;;;5079176;27;45439;-60
2024/03/09 04:47:32;;;;;;;;;2.00;2.00;;;;;;;;5094227;27;45449;-60
2024/03/09 04:49:58;;;;;;;;;2.00;2.00;;;;;;;;5085732;27;46346;-62
2024/03/09 04:52:23;;;;;;;;;2.00;2.00;;;;;;;;5085136;27;45578;-59
2024/03/09 04:54:48;;;;;;;;;3.67;2.00;;;;;;;;5080030;27;45279;-60
2024/03/09 04:57:24;;;;;;;;;4.67;1.00;;;;;;;;5094095;27;45569;-60
2024/03/09 04:59:49;;;;;;;;;1.33;1.33;;;;;;;;5090393;27;46201;-60
2024/03/09 05:02:15;;;;;;;;;1.00;1.00;;;;;;;;5084387;27;45401;-60
2024/03/09 05:04:40;;;;;;;;;1.00;1.00;;;;;;;;5078827;27;45428;-60
2024/03/09 05:07:05;;;;;;;;;3.00;2.00;;;;;;;;5095053;27;45431;-59
2024/03/09 05:09:30;;;;;;;;;1.00;1.00;;;;;;;;5092964;27;45420;-59
2024/03/09 05:11:56;;;;;;;;;2.00;2.00;;;;;;;;5084629;27;45527;-59
2024/03/09 05:14:22;;;;;;;;;1.00;1.00;;;;;;;;5077795;27;45551;-59
2024/03/09 05:16:47;;;;;;;;;1.00;1.00;;;;;;;;5077823;28;45634;-59
2024/03/09 05:19:12;;;;;;;;;1.00;1.00;;;;;;;;5084897;27;45445;-59
2024/03/09 05:21:38;;;;;;;;;2.00;2.00;;;;;;;;5086603;27;45338;-59
2024/03/09 05:24:04;;;;;;;;;4.67;2.67;;;;;;;;5078453;27;45717;-59
2024/03/09 05:26:32;;;;;;;;;2.67;2.00;;;;;;;;5087286;27;45412;-60
2024/03/09 05:29:01;;;;;;;;;0.33;0.33;;;;;;;;5075331;27;47291;-61
2024/03/09 05:31:26;;;;;;;;;3.00;2.33;;;;;;;;5089138;27;45301;-59
2024/03/09 05:33:52;;;;;;;;;1.00;0.00;;;;;;;;5083091;27;45464;-59
2024/03/09 05:36:18;;;;;;;;;1.67;1.67;;;;;;;;5088364;27;45366;-59
2024/03/09 05:38:44;;;;;;;;;1.00;1.00;;;;;;;;5090237;27;46395;-59
2024/03/09 05:41:09;;;;;;;;;3.00;3.00;;;;;;;;5089960;27;45420;-59
2024/03/09 05:43:34;;;;;;;;;2.00;2.00;;;;;;;;5089830;27;45427;-59
2024/03/09 05:46:03;;;;;;;;;2.33;2.33;;;;;;;;5094852;27;45195;-59
2024/03/09 05:48:28;;;;;;;;;2.00;2.00;;;;;;;;5094683;27;46366;-59
2024/03/09 05:50:54;;;;;;;;;2.00;2.00;;;;;;;;5094567;27;45349;-59
2024/03/09 05:53:20;;;;;;;;;1.67;1.67;;;;;;;;5090095;27;45418;-59
2024/03/09 05:55:45;;;;;;;;;2.00;2.00;;;;;;;;5079750;27;45351;-59
2024/03/09 05:58:10;;;;;;;;;2.67;2.67;;;;;;;;5084566;27;46396;-59
2024/03/09 06:00:36;;;;;;;;;2.00;2.00;;;;;;;;5088324;27;45421;-59
2024/03/09 06:03:06;;;;;;;;;2.00;2.00;;;;;;;;5079757;27;45396;-59
2024/03/09 06:05:33;;;;;;;;;2.00;2.00;;;;;;;;5082232;27;45432;-59
2024/03/09 06:07:59;;;;;;;;;2.67;1.67;;;;;;;;5077770;27;46392;-59
2024/03/09 06:10:24;;;;;;;;;1.67;1.67;;;;;;;;5088946;27;45356;-59
2024/03/09 06:12:51;;;;;;;;;4.33;2.33;;;;;;;;5079956;27;45340;-59
2024/03/09 06:15:19;;;;;;;;;1.00;1.00;;;;;;;;5074041;27;45604;-60
2024/03/09 06:17:46;;;;;;;;;1.67;1.67;;;;;;;;5083819;27;45303;-59
2024/03/09 06:20:13;;;;;;;;;4.00;2.00;;;;;;;;5087512;27;45483;-59
2024/03/09 06:22:42;;;;;;;;;2.00;2.00;;;;;;;;5086379;27;45432;-59
2024/03/09 06:25:07;;;;;;;;;2.00;2.00;;;;;;;;5089491;27;45466;-60
2024/03/09 06:27:32;;;;;;;;;2.00;2.00;;;;;;;;5089345;27;46480;-59
2024/03/09 06:29:59;;;;;;;;;3.00;2.00;;;;;;;;5084286;27;45441;-59
2024/03/09 06:32:28;;;;;;;;;1.33;1.33;;;;;;;;5088981;27;45335;-59
2024/03/09 06:34:53;;;;;;;;;2.00;2.00;;;;;;;;5091837;27;45307;-60
2024/03/09 06:37:18;;;;;;;;;1.00;1.00;;;;;;;;5091320;27;45406;-59
2024/03/09 06:39:44;;;;;;;;;2.00;2.00;;;;;;;;5083442;27;45526;-59
2024/03/09 06:42:09;;;;;;;;;2.00;2.00;;;;;;;;5086306;27;45473;-59
2024/03/09 06:44:34;;;;;;;;;2.00;2.00;;;;;;;;5086942;27;45528;-59
2024/03/09 06:46:59;;;;;;;;;1.00;1.00;;;;;;;;5084591;27;46299;-59
2024/03/09 06:49:25;;;;;;;;;1.00;1.00;;;;;;;;5072851;27;45662;-59
2024/03/09 06:51:50;;;;;;;;;1.00;1.00;;;;;;;;5078552;27;45633;-58
2024/03/09 06:54:15;;;;;;;;;3.00;1.00;;;;;;;;5096515;27;45311;-58
2024/03/09 06:56:41;;;;;;;;;3.33;2.33;;;;;;;;5095337;27;46534;-59
2024/03/09 06:59:06;;;;;;;;;2.00;2.00;;;;;;;;5083771;27;45397;-58
2024/03/09 07:01:31;;;;;;;;;3.00;3.00;;;;;;;;5084222;27;45424;-61
2024/03/09 07:04:01;;;;;;;;;2.00;2.00;;;;;;;;5090046;27;45345;-59
2024/03/09 07:06:27;;;;;;;;;2.00;2.00;;;;;;;;5095404;27;46147;-61
2024/03/09 07:08:52;;;;;;;;;1.33;1.33;;;;;;;;5082884;27;45366;-59
2024/03/09 07:11:19;;;;;;;;;2.00;1.00;;;;;;;;5084134;27;45416;-61
2024/03/09 07:13:45;;;;;;;;;2.00;2.00;;;;;;;;5082459;27;45663;-58
2024/03/09 07:16:10;;;;;;;;;2.67;2.00;;;;;;;;5078112;27;46357;-58
2024/03/09 07:18:36;;;;;;;;;3.00;3.00;;;;;;;;5090139;27;45448;-58
2024/03/09 07:21:04;;;;;;;;;5.00;3.33;;;;;;;;5089981;27;45396;-58
2024/03/09 07:23:29;;;;;;;;;2.67;2.67;;;;;;;;5084006;27;45391;-58
2024/03/09 07:25:54;;;;;;;;;2.00;2.00;;;;;;;;5096170;27;45350;-60
2024/03/09 07:28:19;;;;;;;;;3.67;2.00;;;;;;;;5083081;27;45240;-59
2024/03/09 07:30:45;;;;;;;;;3.00;3.00;;;;;;;;5091327;27;45581;-59
2024/03/09 07:33:10;;;;;;;;;1.67;1.67;;;;;;;;5087700;27;45460;-59
2024/03/09 07:35:36;;;;;;;;;2.00;1.33;;;;;;;;5095512;27;46226;-59
2024/03/09 07:38:01;;;;;;;;;2.00;2.00;;;;;;;;5088683;27;45463;-59
2024/03/09 07:40:29;;;;;;;;;1.00;1.00;;;;;;;;5092307;27;45452;-59
2024/03/09 07:42:55;;;;;;;;;4.00;3.00;;;;;;;;5090527;27;45383;-59
2024/03/09 07:45:22;;;;;;;;;4.00;1.00;;;;;;;;5084141;27;45446;-60
2024/03/09 07:47:49;;;;;;;;;1.00;1.00;;;;;;;;5079512;27;45507;-59
2024/03/09 07:50:15;;;;;;;;;1.67;1.67;;;;;;;;5085909;27;45274;-59
2024/03/09 07:52:41;;;;;;;;;6.67;2.00;;;;;;;;5083223;27;45451;-59
2024/03/09 07:55:08;;;;;;;;;2.33;1.00;;;;;;;;5079941;27;46203;-60
2024/03/09 07:57:33;;;;;;;;;2.33;1.00;;;;;;;;5075332;27;45956;-60
2024/03/09 07:59:58;;;;;;;;;5.67;3.00;;;;;;;;5080960;27;45395;-59
2024/03/09 08:02:23;;;;;;;;;4.50;1.00;;;;;;;;5087325;27;45481;-60
2024/03/09 08:04:48;;;;;;;;;23.00;20.33;;;;;;;;5082455;27;46913;-59
2024/03/09 08:07:14;;;;;;;;;3.00;2.33;;;;;;;;5091555;27;45910;-60
2024/03/09 08:09:39;;;;;;;;;8.33;3.00;;;;;;;;5081600;27;45640;-60
2024/03/09 08:12:04;;;;;;;;;2.00;2.00;;;;;;;;5087483;27;45582;-60
2024/03/09 08:14:33;;;;;;;;;2.00;1.00;;;;;;;;5093463;27;45451;-60
2024/03/09 08:16:59;;;;;;;;;1.00;1.00;;;;;;;;5082036;27;45381;-60
2024/03/09 08:19:24;;;;;;;;;2.00;1.33;;;;;;;;5086693;27;45848;-60
2024/03/09 08:21:49;;;;;;;;;5.00;2.00;;;;;;;;5053168;27;45526;-60
2024/03/09 08:24:15;;;;;;;;;3.00;2.00;;;;;;;;5080318;27;46226;-61
2024/03/09 08:26:40;;;;;;;;;2.00;1.33;;;;;;;;5090852;27;45383;-60
2024/03/09 08:29:05;;;;;;;;;3.33;1.67;;;;;;;;5072957;27;45314;-59
2024/03/09 08:31:31;;;;;;;;;2.00;2.00;;;;;;;;5081882;27;45224;-60
2024/03/09 08:33:56;;;;;;;;;2.67;2.67;;;;;;;;5081595;27;46419;-60
2024/03/09 08:36:22;;;;;;;;;1.00;1.00;;;;;;;;5089879;27;45257;-61
2024/03/09 08:38:52;;;;;;;;;3.33;3.33;;;;;;;;5089674;27;45431;-58
2024/03/09 08:41:17;;;;;;;;;1.67;1.67;;;;;;;;5092717;27;45579;-58
2024/03/09 08:43:45;;;;;;;;;2.67;1.00;;;;;;;;5082603;27;46545;-58
2024/03/09 08:46:10;;;;;;;;;3.00;2.00;;;;;;;;5080688;27;45401;-58
2024/03/09 08:48:35;;;;;;;;;2.67;2.00;;;;;;;;5085585;27;45319;-58
2024/03/09 08:51:01;;;;;;;;;0.00;0.00;;;;;;;;5078561;27;46562;-59
2024/03/09 08:53:26;;;;;;;;;1.33;1.33;;;;;;;;5088215;27;46039;-58
2024/03/09 08:55:51;;;;;;;;;3.67;3.00;;;;;;;;5081538;27;45574;-58
2024/03/09 08:58:17;;;;;;;;;1.67;1.67;;;;;;;;5073650;27;45471;-58
2024/03/09 09:00:43;;;;;;;;;2.00;2.00;;;;;;;;5079237;27;45450;-58
2024/03/09 09:03:11;;;;;;;;;2.67;2.00;;;;;;;;5077008;27;46676;-58
2024/03/09 09:05:36;;;;;;;;;1.00;1.00;;;;;;;;5075580;27;45416;-58
2024/03/09 09:08:02;;;;;;;;;3.00;1.67;;;;;;;;5077078;27;45413;-58
2024/03/09 09:10:27;;;;;;;;;0.67;0.67;;;;;;;;5078559;27;45299;-58
2024/03/09 09:12:54;;;;;;;;;1.33;1.33;;;;;;;;5069299;28;47013;-58
2024/03/09 09:15:19;;;;;;;;;3.00;2.00;;;;;;;;5080179;27;45634;-57
2024/03/09 09:17:45;;;;;;;;;2.67;2.00;;;;;;;;5077793;27;45516;-57
2024/03/09 09:20:11;;;;;;;;;3.00;1.00;;;;;;;;5071093;27;45518;-57
2024/03/09 09:22:39;;;;;;;;;0.00;0.00;;;;;;;;5076171;28;45561;-58
2024/03/09 09:25:06;;;;;;;;;2.33;1.00;;;;;;;;5078831;28;45337;-58
2024/03/09 09:27:34;;;;;;;;;1.00;1.00;;;;;;;;5076690;27;45554;-57
2024/03/09 09:30:01;;;;;;;;;1.00;1.00;;;;;;;;5075173;27;45489;-58
2024/03/09 09:32:26;;;;;;;;;3.00;3.00;;;;;;;;5067801;28;47569;-58
2024/03/09 09:34:51;;;;;;;;;2.00;2.00;;;;;;;;5070862;28;45760;-57
2024/03/09 09:37:18;;;;;;;;;3.00;3.00;;;;;;;;5075947;28;45790;-57
2024/03/09 09:39:43;;;;;;;;;5.00;3.33;;;;;;;;5066191;27;45590;-58
2024/03/09 09:42:09;;;;;;;;;3.33;1.00;;;;;;;;5074263;28;45957;-57
2024/03/09 09:44:35;;;;;;;;;1.33;1.33;;;;;;;;5067996;28;45353;-57
2024/03/09 09:47:00;;;;;;;;;1.33;1.33;;;;;;;;5078243;27;45503;-57
2024/03/09 09:49:26;;;;;;;;;1.00;1.00;;;;;;;;5074208;27;45510;-61
2024/03/09 09:51:57;;;;;;;;;4.67;2.67;;;;;;;;5068598;27;45489;-60
2024/03/09 09:54:26;;;;;;;;;2.67;2.67;;;;;;;;5066703;28;45305;-60
2024/03/09 09:56:53;;;;;;;;;1.00;1.00;;;;;;;;5067481;27;45755;-61
2024/03/09 09:59:18;;;;;;;;;1.67;1.67;;;;;;;;5075545;28;45235;-60
2024/03/09 10:01:43;;;;;;;;;3.00;1.00;;;;;;;;5074247;28;48270;-60
2024/03/09 10:04:09;;;;;;;;;2.33;1.00;;;;;;;;5066533;27;45401;-60
2024/03/09 10:06:34;;;;;;;;;1.33;1.33;;;;;;;;5073704;28;45471;-60
2024/03/09 10:09:00;;;;;;;;;2.00;2.00;;;;;;;;5075003;28;45574;-60
2024/03/09 10:11:25;;;;;;;;;2.33;1.00;;;;;;;;5076342;28;46476;-62
2024/03/09 10:13:56;;;;;;;;;1.67;1.67;;;;;;;;5078836;27;45335;-60
2024/03/09 10:16:28;;;;;;;;;0.67;0.67;;;;;;;;5078522;28;45579;-60
2024/03/09 10:18:55;;;;;;;;;0.67;0.67;;;;;;;;5076199;27;45467;-61
2024/03/09 10:21:29;;;;;;;;;1.67;1.67;;;;;;;;5076391;27;46199;-60
2024/03/09 10:24:04;;;;;;;;;1.00;1.00;;;;;;;;5071601;28;45394;-61
2024/03/09 10:26:29;;;;;;;;;6.00;2.33;;;;;;;;5075539;28;45525;-61
2024/03/09 10:28:59;;;;;;;;;3.33;1.67;;;;;;;;5070375;28;45471;-61
2024/03/09 10:31:24;;;;;;;;;2.00;2.00;;;;;;;;5074542;28;47359;-61
2024/03/09 10:33:53;;;;;;;;;4.00;4.00;;;;;;;;5071155;27;45318;-61
2024/03/09 10:36:19;;;;;;;;;0.67;0.67;;;;;;;;5080881;27;45540;-61
2024/03/09 10:38:44;;;;;;;;;3.00;1.67;;;;;;;;5082280;27;45743;-61
2024/03/09 10:41:10;;;;;;;;;2.33;2.33;;;;;;;;5076133;27;46299;-62
2024/03/09 10:43:37;;;;;;;;;5.00;4.00;;;;;;;;5082266;27;45357;-63
2024/03/09 10:46:05;;;;;;;;;3.33;3.33;;;;;;;;5079005;27;45486;-63
2024/03/09 10:48:30;;;;;;;;;0.67;0.67;;;;;;;;5083515;27;45311;-61
2024/03/09 10:51:06;;;;;;;;;6.67;4.33;;;;;;;;5078990;27;45286;-60
2024/03/09 10:54:01;;;;;;;;;2.67;2.00;;;;;;;;5082212;27;45718;-63
2024/03/09 10:56:28;;;;;;;;;2.67;1.33;;;;;;;;5074710;27;45426;-61
2024/03/09 10:58:54;;;;;;;;;1.00;1.00;;;;;;;;5077223;27;45727;-60
2024/03/09 11:01:23;;;;;;;;;2.67;2.00;;;;;;;;5083564;27;45855;-61
2024/03/09 11:03:49;;;;;;;;;3.67;2.00;;;;;;;;5080704;27;45651;-61
2024/03/09 11:06:17;;;;;;;;;2.33;1.33;;;;;;;;5080273;27;45397;-61
2024/03/09 11:08:43;;;;;;;;;2.00;2.00;;;;;;;;5080915;27;45408;-61
2024/03/09 11:11:09;;;;;;;;;2.33;2.33;;;;;;;;5071666;27;45717;-61
2024/03/09 11:13:34;;;;;;;;;3.33;3.00;;;;;;;;5069494;27;45467;-62
2024/03/09 11:15:59;;;;;;;;;2.00;2.00;;;;;;;;5070760;27;46031;-61
2024/03/09 11:18:25;;;;;;;;;0.00;0.00;;;;;;;;5068381;27;45369;-59
2024/03/09 11:20:52;;;;;;;;;1.00;1.00;;;;;;;;5071653;27;48754;-60
2024/03/09 11:23:21;;;;;;;;;2.00;1.00;;;;;;;;5074988;27;45325;-61
2024/03/09 11:25:51;;;;;;;;;1.00;1.00;;;;;;;;5063889;27;45487;-61
2024/03/09 11:28:16;;;;;;;;;0.75;0.75;;;;;;;;5066757;27;45417;-62
2024/03/09 11:31:10;;;;;;;;;1.50;1.00;;;;;;;;5067270;27;45358;-62
2024/03/09 11:33:57;;;;;;;;;1.00;1.00;;;;;;;;5072262;27;45549;-62
2024/03/09 11:36:41;;;;;;;;;1.00;1.00;;;;;;;;5078269;28;45504;-62
2024/03/09 11:39:07;;;;;;;;;1.50;1.00;;;;;;;;5080705;28;45493;-58
2024/03/09 11:41:38;;;;;;;;;0.75;0.75;;;;;;;;5079579;28;46919;-60
2024/03/09 11:44:07;;;;;;;;;1.50;1.00;;;;;;;;5081076;27;44909;-58
2024/03/09 11:46:35;;;;;;;;;1.00;1.00;;;;;;;;5078632;27;45476;-58
2024/03/09 11:49:04;;;;;;;;;1.00;1.00;;;;;;;;5070982;28;45418;-58
2024/03/09 11:51:33;;;;;;;;;1.50;1.00;;;;;;;;5080151;27;46751;-59
2024/03/09 11:54:00;;;;;;;;;0.00;0.00;;;;;;;;5072177;27;45541;-58
2024/03/09 11:56:28;;;;;;;;;1.00;1.00;;;;;;;;5071933;27;45560;-58
2024/03/09 11:58:53;;;;;;;;;1.25;1.00;;;;;;;;5077521;27;45484;-58
2024/03/09 12:01:19;;;;;;;;;1.00;1.00;;;;;;;;5070239;27;46361;-58
2024/03/09 12:03:49;;;;;;;;;0.00;0.00;;;;;;;;5081437;27;45351;-58
2024/03/09 12:06:14;;;;;;;;;1.25;1.00;;;;;;;;5077962;27;45460;-58
2024/03/09 12:08:40;;;;;;;;;1.00;1.00;;;;;;;;5086473;27;45505;-57
2024/03/09 12:11:05;;;;;;;;;2.00;2.00;;;;;;;;5077227;27;46590;-58
2024/03/09 12:13:30;;;;;;;;;2.00;1.00;;;;;;;;5081905;27;45709;-58
2024/03/09 12:15:58;;;;;;;;;1.00;1.00;;;;;;;;5074059;27;45567;-58
2024/03/09 12:18:23;;;;;;;;;0.00;0.00;;;;;;;;5071661;27;45615;-57
2024/03/09 12:20:49;;;;;;;;;0.00;0.00;;;;;;;;5080447;27;45699;-57
2024/03/09 12:23:16;;;;;;;;;2.00;1.00;;;;;;;;5092971;27;45319;-57
2024/03/09 12:25:42;;;;;;;;;1.50;1.50;;;;;;;;5082025;27;45349;-57
2024/03/09 12:28:09;;;;;;;;;2.50;1.00;;;;;;;;5081269;27;45465;-58
2024/03/09 12:30:34;;;;;;;;;1.00;1.00;;;;;;;;5079289;27;47305;-57
2024/03/09 12:33:00;;;;;;;;;1.25;0.75;;;;;;;;5082668;27;45476;-58
2024/03/09 12:35:26;;;;;;;;;2.00;0.00;;;;;;;;5075909;27;45465;-58
2024/03/09 12:37:51;;;;;;;;;1.00;1.00;;;;;;;;5082685;27;45722;-58
2024/03/09 12:40:18;;;;;;;;;1.00;0.75;;;;;;;;5079908;27;45658;-58
2024/03/09 12:42:44;;;;;;;;;3.00;2.00;;;;;;;;5087473;27;45344;-58
2024/03/09 12:45:19;;;;;;;;;3.00;1.00;;;;;;;;5081670;27;45507;-58
2024/03/09 12:47:46;;;;;;;;;3.00;1.00;;;;;;;;5083243;27;45576;-58
2024/03/09 12:50:14;;;;;;;;;3.33;1.00;;;;;;;;5081513;27;46999;-58
2024/03/09 12:52:40;;;;;;;;;1.00;1.00;;;;;;;;5077729;27;45807;-59
2024/03/09 12:55:08;;;;;;;;;0.00;0.00;;;;;;;;5076366;27;45619;-62
2024/03/09 12:57:34;;;;;;;;;1.00;1.00;;;;;;;;5078035;27;45578;-62
2024/03/09 12:59:59;;;;;;;;;1.00;1.00;;;;;;;;5075866;27;46346;-61
2024/03/09 13:02:26;;;;;;;;;1.00;1.00;;;;;;;;5074990;28;45727;-61
2024/03/09 13:04:51;;;;;;;;;1.00;1.00;;;;;;;;5071325;28;45706;-61
2024/03/09 13:07:17;;;;;;;;;0.67;0.67;;;;;;;;5076442;27;45316;-61
2024/03/09 13:09:42;;;;;;;;;1.00;1.00;;;;;;;;5077001;27;46393;-61
2024/03/09 13:12:07;;;;;;;;;0.67;0.67;;;;;;;;5077231;27;45392;-61
2024/03/09 13:14:36;;;;;;;;;0.67;0.67;;;;;;;;5077139;27;45626;-64
2024/03/09 13:17:01;;;;;;;;;1.00;1.00;;;;;;;;5077351;28;45615;-61
2024/03/09 13:19:26;;;;;;;;;1.33;0.67;;;;;;;;5077004;27;45902;-62
2024/03/09 13:21:52;;;;;;;;;0.67;0.67;;;;;;;;5076848;27;45532;-63
2024/03/09 13:24:21;;;;;;;;;0.67;0.67;;;;;;;;5078388;28;45379;-64
2024/03/09 13:26:47;;;;;;;;;0.33;0.33;;;;;;;;5079894;27;45663;-62
2024/03/09 13:29:13;;;;;;;;;1.33;0.33;;;;;;;;5076221;28;46176;-62
2024/03/09 13:31:38;;;;;;;;;2.33;2.33;;;;;;;;5078752;27;46240;-62
2024/03/09 13:34:06;;;;;;;;;0.67;0.67;;;;;;;;5076475;28;45809;-63
2024/03/09 13:36:31;;;;;;;;;1.67;0.67;;;;;;;;5078681;27;45644;-63
2024/03/09 13:38:56;;;;;;;;;1.00;1.00;;;;;;;;5077058;27;46253;-63
2024/03/09 13:41:24;;;;;;;;;0.67;0.67;;;;;;;;5076881;27;45469;-63
2024/03/09 13:43:49;;;;;;;;;3.67;2.00;;;;;;;;5075139;27;45321;-64
2024/03/09 13:46:16;;;;;;;;;1.67;0.67;;;;;;;;5069334;27;45350;-64
2024/03/09 13:48:42;;;;;;;;;3.33;0.33;;;;;;;;5078129;27;47182;-64
2024/03/09 13:51:09;;;;;;;;;0.67;0.00;;;;;;;;5065298;27;45631;-64
2024/03/09 13:53:35;;;;;;;;;0.67;0.67;;;;;;;;5075443;27;45460;-64
2024/03/09 13:56:02;;;;;;;;;0.00;0.00;;;;;;;;5079093;27;46314;-71
2024/03/09 13:58:27;;;;;;;;;1.67;0.00;;;;;;;;5078069;27;46503;-65
2024/03/09 14:00:52;;;;;;;;;0.00;0.00;;;;;;;;5078913;27;45374;-64
2024/03/09 14:03:17;;;;;;;;;2.33;0.67;;;;;;;;5079066;27;45384;-65
2024/03/09 14:05:43;;;;;;;;;0.33;0.33;;;;;;;;5076809;27;45509;-64
2024/03/09 14:08:09;;;;;;;;;0.00;0.00;;;;;;;;5076980;27;46258;-65
2024/03/09 14:10:34;;;;;;;;;0.33;0.33;;;;;;;;5078569;27;45367;-65
2024/03/09 14:13:07;;;;;;;;;0.00;0.00;;;;;;;;5076644;27;45440;-65
2024/03/09 14:15:33;;;;;;;;;0.67;0.00;;;;;;;;5076986;27;45394;-64
2024/03/09 14:17:58;;;;;;;;;1.33;0.67;;;;;;;;5077353;27;46144;-64
2024/03/09 14:20:24;;;;;;;;;0.00;0.00;;;;;;;;5076828;27;45554;-64
2024/03/09 14:22:51;;;;;;;;;0.00;0.00;;;;;;;;5076916;28;45402;-64
2024/03/09 14:25:17;;;;;;;;;0.67;0.67;;;;;;;;5078077;27;46089;-64
2024/03/09 14:27:42;;;;;;;;;0.00;0.00;;;;;;;;5077110;27;46248;-64
2024/03/09 14:30:10;;;;;;;;;0.00;0.00;;;;;;;;5065265;27;45412;-64
2024/03/09 14:32:39;;;;;;;;;0.00;0.00;;;;;;;;5078204;27;45499;-65
2024/03/09 14:35:13;;;;;;;;;0.67;0.00;;;;;;;;5076356;27;46286;-65
2024/03/09 14:37:43;;;;;;;;;2.67;0.67;;;;;;;;5080176;27;46130;-64
2024/03/09 14:40:11;;;;;;;;;0.33;0.33;;;;;;;;5078372;27;45482;-64
2024/03/09 14:42:36;;;;;;;;;1.00;1.00;;;;;;;;5074150;27;45317;-64